Time;durP1;ratioP1;P1;durP2;ratioP2;P2;SDS_P1;SDS_P2;PMS_P1;PMS_P2;Temp;Humidity;BMP_temperature;BMP_pressure;BME280_temperature;BME280_humidity;BME280_pressure;Samples;Min_cycle;Max_cycle;Signal;HPM_P1;HPM_P2
2022/01/21 00:04:51;;;;;;;8.13;1.90;;;;;;;-0.35;72.08;99915.75;10545048;28;20246;-65
2022/01/21 00:09:54;;;;;;;5.00;1.50;;;;;;;-0.29;72.39;99918.44;10544613;28;20687;-67
2022/01/21 00:14:58;;;;;;;5.90;1.73;;;;;;;-0.23;72.24;99935.56;10544350;28;20680;-68
2022/01/21 00:30:44;;;;;;;5.23;1.40;;;;;;;-0.28;72.22;99944.78;10523602;28;20248;-67
2022/01/21 00:35:47;;;;;;;3.63;1.40;;;;;;;-0.54;73.93;99958.53;10541838;28;20227;-66
2022/01/21 00:40:50;;;;;;;5.53;1.50;;;;;;;-0.38;73.68;99958.97;10503846;28;20230;-66
2022/01/21 00:45:55;;;;;;;7.13;2.00;;;;;;;-0.21;72.18;99967.06;10504576;28;20212;-66
2022/01/21 00:50:58;;;;;;;6.23;1.70;;;;;;;-0.32;71.58;99943.84;10504785;28;20216;-67
2022/01/21 00:56:01;;;;;;;5.43;1.77;;;;;;;-0.40;71.89;99952.97;10504338;28;20303;-66
2022/01/21 01:01:06;;;;;;;5.03;1.77;;;;;;;-0.40;71.97;99950.41;10504434;28;20228;-64
2022/01/21 01:06:10;;;;;;;8.23;1.73;;;;;;;-0.43;72.42;99934.19;10504239;28;20216;-67
2022/01/21 01:11:30;;;;;;;4.83;1.33;;;;;;;-0.42;71.74;99939.34;10503560;28;20606;-64
2022/01/21 01:21:57;;;;;;;4.97;1.10;;;;;;;-0.53;71.71;99950.91;10503539;28;20560;-67
2022/01/21 01:32:23;;;;;;;4.30;1.27;;;;;;;-0.61;71.17;99939.66;10502893;28;20219;-65
2022/01/21 01:37:37;;;;;;;5.37;1.30;;;;;;;-0.74;71.43;99944.38;10502561;28;20686;-67
2022/01/21 01:43:05;;;;;;;4.17;1.43;;;;;;;-0.84;70.86;99944.94;10502406;28;20226;-66
2022/01/21 01:53:35;;;;;;;5.17;1.27;;;;;;;-0.70;71.13;99966.56;10501857;28;20353;-64
2022/01/21 01:58:39;;;;;;;3.23;0.90;;;;;;;-0.70;71.66;99938.53;10501788;28;20306;-63
2022/01/21 02:03:44;;;;;;;6.27;1.40;;;;;;;-0.52;70.94;99955.19;10501630;28;20220;-66
2022/01/21 02:08:47;;;;;;;3.40;1.23;;;;;;;-0.40;70.41;99929.19;10501498;28;20234;-65
2022/01/21 02:13:57;;;;;;;3.43;1.00;;;;;;;-0.34;70.06;99930.19;10501398;28;20216;-68
2022/01/21 02:24:34;;;;;;;5.40;1.97;;;;;;;-0.40;70.18;99918.97;10501281;28;20257;-67
2022/01/21 02:29:45;;;;;;;7.53;1.53;;;;;;;-0.47;70.25;99920.50;10501233;28;20212;-64
2022/01/21 02:34:49;;;;;;;11.00;3.40;;;;;;;-0.67;70.67;99915.69;10501284;28;20537;-67
2022/01/21 02:39:54;;;;;;;5.90;1.27;;;;;;;-0.68;71.49;99911.41;10500444;28;20220;-68
2022/01/21 02:44:57;;;;;;;8.20;1.40;;;;;;;-0.67;72.75;99921.66;10500105;28;20228;-67
2022/01/21 02:50:00;;;;;;;5.27;1.37;;;;;;;-0.68;74.00;99924.16;10500461;28;20219;-66
2022/01/21 02:55:06;;;;;;;5.57;1.30;;;;;;;-0.92;75.87;99919.25;10500570;28;20222;-68
2022/01/21 03:00:10;;;;;;;29.90;11.20;;;;;;;-0.96;75.75;99950.53;10500276;28;20231;-67
2022/01/21 03:05:15;;;;;;;7.67;1.30;;;;;;;-1.04;76.42;99930.78;10500459;28;20212;-67
2022/01/21 03:10:20;;;;;;;16.27;6.17;;;;;;;-0.99;76.98;99955.56;10500165;28;20295;-64
2022/01/21 03:15:23;;;;;;;5.93;1.67;;;;;;;-1.01;76.99;99946.13;10500115;28;20224;-65
2022/01/21 03:20:27;;;;;;;4.70;1.70;;;;;;;-0.93;77.43;99952.34;10500039;28;20319;-69
2022/01/21 03:25:31;;;;;;;3.27;0.83;;;;;;;-1.05;78.60;99944.34;10156317;27;10000112;-65
2022/01/21 03:30:35;;;;;;;5.07;1.40;;;;;;;-1.21;79.35;99958.28;10539019;28;20222;-67
2022/01/21 03:35:38;;;;;;;6.33;1.60;;;;;;;-1.28;80.27;99959.78;10538136;28;20302;-63
2022/01/21 03:40:43;;;;;;;6.57;1.50;;;;;;;-1.17;80.18;99978.78;10537934;28;20228;-66
2022/01/21 03:45:46;;;;;;;5.20;1.30;;;;;;;-1.20;80.51;99963.44;10538237;28;20212;-65
2022/01/21 03:50:50;;;;;;;5.70;1.70;;;;;;;-1.13;80.70;99964.47;10537767;28;20219;-64
2022/01/21 03:55:55;;;;;;;5.30;1.17;;;;;;;-1.04;80.38;99958.78;10542395;28;20225;-64
2022/01/21 04:00:58;;;;;;;5.23;1.20;;;;;;;-0.96;80.71;99960.72;10548460;28;20229;-67
2022/01/21 04:06:02;;;;;;;5.37;1.30;;;;;;;-0.85;79.41;99972.09;10548368;28;20271;-65
2022/01/21 04:11:06;;;;;;;1.93;0.60;;;;;;;-0.79;80.01;100002.81;10547964;28;20215;-66
2022/01/21 04:16:09;;;;;;;6.23;1.60;;;;;;;-0.83;80.27;99973.00;10547926;28;20693;-65
2022/01/21 04:21:13;;;;;;;5.57;0.90;;;;;;;-0.72;79.90;99966.50;10547341;28;20249;-65
2022/01/21 04:26:17;;;;;;;5.73;1.30;;;;;;;-0.93;81.47;99980.34;10547518;28;20216;-64
2022/01/21 04:31:20;;;;;;;9.43;3.70;;;;;;;-0.80;80.71;99985.81;10547038;28;20311;-66
2022/01/21 04:36:24;;;;;;;3.20;0.50;;;;;;;-0.64;80.85;99994.78;10546849;28;20226;-68
2022/01/21 04:41:54;;;;;;;5.50;1.43;;;;;;;-0.61;80.83;99993.16;10546834;28;20227;-65
2022/01/21 04:52:18;;;;;;;4.33;1.07;;;;;;;-0.46;79.63;100001.22;10546196;28;20302;-67
2022/01/21 04:57:22;;;;;;;3.83;0.80;;;;;;;-0.40;79.26;100000.53;10546165;28;20661;-66
2022/01/21 05:02:27;;;;;;;9.83;4.80;;;;;;;-0.29;79.38;99994.91;10545798;28;20624;-62
2022/01/21 05:07:35;;;;;;;5.17;1.57;;;;;;;-0.37;79.21;99998.94;10545733;28;20302;-65
2022/01/21 05:12:39;;;;;;;3.50;0.80;;;;;;;-0.24;79.90;100007.75;10545629;28;20219;-66
2022/01/21 05:17:48;;;;;;;5.20;1.10;;;;;;;-0.27;80.50;100020.44;10545344;28;20695;-66
2022/01/21 05:22:51;;;;;;;4.57;0.87;;;;;;;-0.08;79.38;100010.78;10545073;28;20226;-65
2022/01/21 05:27:58;;;;;;;12.80;4.13;;;;;;;-0.21;79.31;100024.00;10545476;28;20237;-65
2022/01/21 05:33:01;;;;;;;4.40;1.33;;;;;;;-0.08;79.86;100020.97;10545545;28;20224;-65
2022/01/21 05:38:05;;;;;;;2.40;1.00;;;;;;;0.13;79.25;100007.03;10534934;28;20573;-64
2022/01/21 05:43:09;;;;;;;3.80;1.10;;;;;;;0.20;78.81;100016.59;10499692;28;20211;-65
2022/01/21 05:48:12;;;;;;;8.03;1.20;;;;;;;-0.18;79.81;100041.09;10499053;28;20215;-67
2022/01/21 05:53:16;;;;;;;4.33;1.23;;;;;;;-0.21;80.75;100030.81;10498653;28;20212;-66
2022/01/21 05:58:20;;;;;;;3.13;0.80;;;;;;;-0.15;80.85;100036.06;10500927;28;20226;-66
2022/01/21 06:03:24;;;;;;;2.60;1.00;;;;;;;-0.15;81.41;100049.69;10500731;28;20547;-64
2022/01/21 06:08:27;;;;;;;4.37;1.37;;;;;;;-0.05;80.62;100035.47;10494171;28;20207;-65
2022/01/21 06:13:32;;;;;;;7.00;1.40;;;;;;;-0.14;81.26;100045.47;10500398;28;20220;-63
2022/01/21 06:18:38;;;;;;;6.87;1.37;;;;;;;-0.12;81.59;100039.56;10497067;28;20228;-64
2022/01/21 06:23:41;;;;;;;4.30;2.13;;;;;;;-0.12;81.47;100039.56;10500087;28;20239;-67
2022/01/21 06:28:46;;;;;;;6.47;1.77;;;;;;;-0.08;81.46;100055.81;10499912;28;20295;-65
2022/01/21 06:33:49;;;;;;;5.43;1.37;;;;;;;-0.13;81.74;100057.38;10499772;28;20299;-64
2022/01/21 06:38:52;;;;;;;4.50;1.37;;;;;;;0.02;82.03;100057.78;10498189;28;20215;-67
2022/01/21 06:43:56;;;;;;;4.20;1.37;;;;;;;-0.01;81.76;100068.78;10499275;28;20216;-65
2022/01/21 06:49:00;;;;;;;5.30;1.33;;;;;;;-0.06;83.14;100084.78;10480353;28;20212;-65
2022/01/21 06:54:03;;;;;;;5.77;1.70;;;;;;;0.04;82.46;100091.84;10138771;28;10000274;-66
2022/01/21 06:59:08;;;;;;;5.93;1.43;;;;;;;-0.09;83.45;100090.63;10496808;28;20231;-65
2022/01/21 07:04:11;;;;;;;5.37;2.13;;;;;;;-0.08;83.67;100102.59;10496919;28;20212;-65
2022/01/21 07:09:14;;;;;;;3.77;1.23;;;;;;;0.00;83.80;100090.06;10496674;28;20302;-65
2022/01/21 07:14:19;;;;;;;5.23;1.47;;;;;;;0.05;82.89;100100.38;10491379;28;20281;-66
2022/01/21 07:19:22;;;;;;;2.70;1.00;;;;;;;0.10;82.90;100114.13;10494727;28;20234;-65
2022/01/21 07:24:25;;;;;;;8.63;1.37;;;;;;;0.14;82.24;100114.22;10494864;28;20204;-67
2022/01/21 07:29:30;;;;;;;5.07;1.33;;;;;;;0.19;81.81;100112.66;10498193;28;20227;-67
2022/01/21 07:34:33;;;;;;;4.27;1.30;;;;;;;0.00;83.17;100120.66;10503836;28;20547;-67
2022/01/21 07:39:36;;;;;;;6.20;1.30;;;;;;;0.17;81.01;100126.22;10503781;28;20717;-62
2022/01/21 07:44:41;;;;;;;3.17;1.00;;;;;;;0.16;80.31;100119.38;10503656;28;20227;-63
2022/01/21 07:49:44;;;;;;;4.83;1.23;;;;;;;0.15;80.00;100112.53;10503489;28;20248;-65
2022/01/21 07:54:47;;;;;;;7.63;1.43;;;;;;;0.28;79.18;100112.91;10511285;28;20224;-62
2022/01/21 07:59:52;;;;;;;8.73;1.00;;;;;;;0.19;79.55;100130.50;10503332;28;20230;-65
2022/01/21 08:04:57;;;;;;;4.70;1.27;;;;;;;0.21;77.95;100130.59;10502619;28;20263;-66
2022/01/21 08:10:00;;;;;;;6.17;1.40;;;;;;;0.26;78.76;100129.03;10502867;28;20234;-69
2022/01/21 08:15:06;;;;;;;8.90;1.50;;;;;;;0.45;77.37;100131.25;10503913;28;20665;-64
2022/01/21 08:20:09;;;;;;;6.00;1.17;;;;;;;0.54;76.44;100129.78;10505600;28;20242;-66
2022/01/21 08:25:13;;;;;;;3.97;1.33;;;;;;;0.54;75.82;100136.56;10502667;28;20216;-65
2022/01/21 08:30:17;;;;;;;3.93;1.27;;;;;;;0.75;74.75;100129.44;10502070;28;20230;-65
2022/01/21 08:35:21;;;;;;;7.93;1.97;;;;;;;1.00;73.00;100140.31;10501591;28;20665;-64
2022/01/21 08:40:26;;;;;;;6.17;1.43;;;;;;;1.09;72.76;100155.00;10502038;28;20219;-69
2022/01/21 08:45:32;;;;;;;4.67;1.43;;;;;;;1.08;72.77;100153.28;10501832;28;20307;-65
2022/01/21 08:50:35;;;;;;;9.20;1.40;;;;;;;1.27;72.01;100160.56;10501246;28;20228;-67
2022/01/21 08:55:38;;;;;;;3.53;1.10;;;;;;;1.29;70.91;100169.13;10516596;28;20271;-66
2022/01/21 09:00:43;;;;;;;4.17;1.20;;;;;;;1.37;71.53;100161.63;10500905;28;20225;-68
2022/01/21 09:05:49;;;;;;;4.70;1.60;;;;;;;1.40;70.33;100162.56;10500365;28;20633;-64
2022/01/21 09:10:52;;;;;;;5.47;1.77;;;;;;;1.43;70.16;100172.00;10500777;28;20206;-64
2022/01/21 09:16:00;;;;;;;4.70;1.57;;;;;;;1.32;70.43;100163.19;10499777;28;20234;-66
2022/01/21 09:21:05;;;;;;;4.13;1.50;;;;;;;1.45;70.56;100176.31;10500169;28;20232;-67
2022/01/21 09:26:09;;;;;;;4.53;1.00;;;;;;;1.43;70.76;100180.53;10500117;28;20394;-65
2022/01/21 09:31:15;;;;;;;2.37;1.00;;;;;;;1.36;71.33;100165.88;10499604;28;20210;-62
2022/01/21 09:36:19;;;;;;;5.10;0.80;;;;;;;1.46;70.42;100182.28;10499417;28;20202;-66
2022/01/21 09:41:23;;;;;;;5.17;1.57;;;;;;;1.28;71.51;100192.09;10499448;28;20216;-64
2022/01/21 09:46:33;;;;;;;6.47;1.90;;;;;;;1.22;72.05;100191.94;10498668;28;20232;-66
2022/01/21 09:51:37;;;;;;;4.83;1.90;;;;;;;1.31;70.98;100192.16;10505595;28;20279;-65
2022/01/21 09:56:45;;;;;;;5.23;1.73;;;;;;;1.27;71.64;100181.00;10514826;28;20287;-64
2022/01/21 10:01:52;;;;;;;7.30;2.03;;;;;;;1.11;70.80;100167.00;10498314;28;20211;-65
2022/01/21 10:06:56;;;;;;;3.67;1.30;;;;;;;1.19;70.99;100160.34;10498349;28;20187;-64
2022/01/21 10:12:01;;;;;;;7.57;1.73;;;;;;;1.28;69.90;100157.16;10498187;28;20279;-67
2022/01/21 10:17:07;;;;;;;5.63;1.50;;;;;;;1.82;68.17;100147.28;10498802;28;20265;-66
2022/01/21 10:22:15;;;;;;;3.43;0.97;;;;;;;2.13;66.57;100159.88;10498158;28;20223;-66
2022/01/21 10:27:24;;;;;;;5.77;1.87;;;;;;;2.26;65.63;100157.59;10497375;28;20231;-66
2022/01/21 10:32:37;;;;;;;8.40;1.40;;;;;;;2.24;65.58;100153.31;10497673;28;20649;-66
2022/01/21 10:38:14;;;;;;;2.90;0.97;;;;;;;3.15;62.99;100140.41;10497472;28;20200;-65
2022/01/21 10:43:20;;;;;;;3.77;0.90;;;;;;;3.10;61.83;100153.16;10497095;28;20195;-67
2022/01/21 10:48:25;;;;;;;2.87;0.90;;;;;;;3.76;59.73;100161.00;10497184;28;20210;-65
2022/01/21 10:53:32;;;;;;;4.63;1.50;;;;;;;3.88;58.62;100142.34;10518984;28;20199;-64
2022/01/21 10:58:39;;;;;;;3.73;1.43;;;;;;;4.27;57.63;100117.13;10499962;28;20192;-64
2022/01/21 11:03:59;;;;;;;5.47;1.30;;;;;;;4.92;57.30;100120.34;10498084;28;20665;-67
2022/01/21 11:09:17;;;;;;;6.30;1.95;;;;;;;5.39;55.40;100126.69;10502525;28;20404;-65
2022/01/21 11:14:21;;;;;;;5.13;2.10;;;;;;;5.87;54.40;100129.59;10502714;28;20421;-64
2022/01/21 11:19:29;;;;;;;7.57;2.45;;;;;;;5.08;56.46;100137.63;10501031;28;20764;-66
2022/01/21 11:24:33;;;;;;;7.38;2.20;;;;;;;5.51;54.87;100155.09;10501666;28;20409;-67
2022/01/21 11:29:36;;;;;;;8.63;2.27;;;;;;;5.05;56.03;100151.31;10501782;28;20390;-67
2022/01/21 11:34:42;;;;;;;7.63;2.33;;;;;;;4.04;57.57;100139.97;10501934;28;20405;-67
2022/01/21 11:39:46;;;;;;;8.87;2.20;;;;;;;3.65;59.06;100141.16;10501013;28;20802;-66
2022/01/21 11:44:52;;;;;;;7.35;2.28;;;;;;;3.59;59.85;100185.53;10503918;28;20723;-67
2022/01/21 11:49:59;;;;;;;6.70;2.00;;;;;;;3.80;59.60;100159.31;10504255;28;20938;-66
2022/01/21 11:55:02;;;;;;;9.40;2.53;;;;;;;3.18;60.73;100164.38;10498480;28;20390;-67
2022/01/21 12:00:17;;;;;;;8.75;2.30;;;;;;;3.14;61.62;100164.31;10503243;28;20389;-69
2022/01/21 12:05:27;;;;;;;9.43;3.50;;;;;;;2.74;62.23;100170.47;10503425;28;20836;-62
2022/01/21 12:10:37;;;;;;;9.68;3.35;;;;;;;2.77;63.37;100179.91;10503231;28;20753;-68
2022/01/21 12:21:30;;;;;;;9.73;2.40;;;;;;;2.32;64.33;100172.22;10502910;28;20418;-64
2022/01/21 12:26:33;;;;;;;8.15;2.15;;;;;;;2.15;64.75;100191.50;10502924;28;20446;-63
2022/01/21 12:31:55;;;;;;;8.10;2.40;;;;;;;1.90;65.05;100196.91;10502838;28;20410;-63
2022/01/21 12:37:09;;;;;;;7.00;1.98;;;;;;;1.79;65.25;100198.41;10498650;28;20408;-66
2022/01/21 12:42:32;;;;;;;9.47;2.10;;;;;;;1.83;65.44;100195.94;10501106;28;20416;-63
2022/01/21 12:47:40;;;;;;;6.73;1.73;;;;;;;1.54;66.47;100190.97;10501297;28;20556;-64
2022/01/21 12:52:48;;;;;;;8.27;2.23;;;;;;;1.55;66.92;100200.41;10501638;28;20731;-66
2022/01/21 12:57:55;;;;;;;8.13;2.65;;;;;;;1.85;66.48;100203.63;10501275;28;20397;-66
2022/01/21 13:03:05;;;;;;;7.60;1.90;;;;;;;1.93;66.39;100202.97;10501678;28;20410;-64
2022/01/21 13:08:22;;;;;;;9.10;3.00;;;;;;;1.89;65.94;100206.31;10499685;28;20389;-64
2022/01/21 13:13:45;;;;;;;7.78;1.90;;;;;;;1.84;66.13;100218.13;10501098;28;20489;-66
2022/01/21 13:18:49;;;;;;;6.70;1.90;;;;;;;1.83;66.64;100210.44;10500366;28;20398;-64
2022/01/21 13:23:57;;;;;;;10.00;2.33;;;;;;;1.53;67.31;100212.28;10500551;28;20428;-66
2022/01/21 13:29:03;;;;;;;9.98;2.30;;;;;;;1.60;67.40;100224.38;10499988;28;20394;-65
2022/01/21 13:34:11;;;;;;;6.82;1.95;;;;;;;1.60;67.89;100224.38;10499592;28;20398;-66
2022/01/21 13:39:18;;;;;;;7.97;2.30;;;;;;;1.43;68.24;100234.22;10500196;28;20409;-66
2022/01/21 13:44:42;;;;;;;7.72;2.05;;;;;;;1.22;68.81;100233.69;10499100;28;20505;-65
2022/01/21 13:49:48;;;;;;;8.02;2.08;;;;;;;1.48;68.15;100235.19;10144819;27;10000874;-65
2022/01/21 13:54:52;;;;;;;8.13;1.70;;;;;;;1.34;68.75;100244.22;10498670;28;20227;-63
2022/01/21 13:59:56;;;;;;;6.47;1.80;;;;;;;1.42;67.95;100232.47;10498285;28;20295;-62
2022/01/21 14:05:01;;;;;;;4.17;1.10;;;;;;;1.42;68.03;100240.16;10498170;28;20238;-63
2022/01/21 14:10:10;;;;;;;6.60;2.07;;;;;;;1.39;67.51;100242.63;10498072;28;20226;-66
2022/01/21 14:15:14;;;;;;;4.30;1.53;;;;;;;1.32;68.37;100240.75;10497749;28;20553;-65
2022/01/21 14:20:21;;;;;;;2.40;1.00;;;;;;;1.39;68.23;100250.31;10497462;28;20704;-64
2022/01/21 14:25:26;;;;;;;3.70;1.40;;;;;;;1.16;69.09;100264.19;10497784;28;20247;-65
2022/01/21 14:30:29;;;;;;;8.03;1.67;;;;;;;1.21;69.42;100242.16;10497205;28;20230;-64
2022/01/21 14:35:36;;;;;;;4.00;1.60;;;;;;;1.19;69.52;100261.75;10497279;28;20230;-68
2022/01/21 14:40:43;;;;;;;9.63;1.90;;;;;;;1.25;69.67;100272.09;10496150;28;20291;-65
2022/01/21 14:45:56;;;;;;;6.90;1.60;;;;;;;1.14;69.76;100265.84;10495827;28;20220;-62
2022/01/21 14:51:07;;;;;;;7.90;1.93;;;;;;;1.00;70.63;100268.03;10496916;28;20226;-64
2022/01/21 14:56:23;;;;;;;5.53;1.73;;;;;;;1.11;70.96;100269.19;10510982;28;20227;-66
2022/01/21 15:01:27;;;;;;;8.60;2.07;;;;;;;0.96;70.94;100267.94;10496637;28;20231;-68
2022/01/21 15:06:35;;;;;;;4.97;1.43;;;;;;;1.10;70.64;100264.06;10497128;28;20216;-67
2022/01/21 15:11:58;;;;;;;5.63;1.90;;;;;;;1.09;70.35;100257.19;10496483;28;20244;-64
2022/01/21 15:17:09;;;;;;;6.67;2.10;;;;;;;1.05;70.77;100268.19;10491129;28;20224;-65
2022/01/21 15:22:15;;;;;;;10.17;2.13;;;;;;;1.00;70.68;100272.31;10495429;28;20230;-66
2022/01/21 15:27:20;;;;;;;17.97;8.13;;;;;;;1.16;72.09;100276.97;10492843;28;20208;-66
2022/01/21 15:32:24;;;;;;;6.23;1.27;;;;;;;1.28;70.68;100294.34;10495612;28;20648;-70
2022/01/21 15:37:27;;;;;;;6.37;2.00;;;;;;;0.95;70.90;100278.97;10495405;28;20223;-66
2022/01/21 15:42:31;;;;;;;7.20;1.67;;;;;;;0.96;70.86;100285.81;10492279;28;20220;-64
2022/01/21 15:47:55;;;;;;;7.17;1.63;;;;;;;1.05;70.61;100280.97;10495069;28;20235;-64
2022/01/21 15:52:58;;;;;;;7.33;2.07;;;;;;;1.04;70.80;100304.75;10501140;28;20222;-64
2022/01/21 15:58:03;;;;;;;9.30;2.07;;;;;;;0.87;71.76;100294.09;10495920;28;20212;-65
2022/01/21 16:03:06;;;;;;;9.87;2.63;;;;;;;1.10;70.87;100287.88;10502000;28;20212;-67
2022/01/21 16:08:10;;;;;;;9.00;1.97;;;;;;;0.99;71.45;100298.66;10502357;28;20224;-68
2022/01/21 16:13:14;;;;;;;8.63;2.50;;;;;;;0.80;71.99;100309.19;10501310;28;20220;-65
2022/01/21 16:18:17;;;;;;;5.80;1.60;;;;;;;0.98;71.18;100304.59;10501807;28;20228;-67
2022/01/21 16:23:21;;;;;;;6.93;1.70;;;;;;;1.02;70.55;100308.97;10483235;28;20276;-69
2022/01/21 16:28:29;;;;;;;4.23;1.33;;;;;;;1.00;70.62;100290.19;10500824;28;20192;-68
2022/01/21 16:33:32;;;;;;;8.20;1.80;;;;;;;0.88;71.31;100298.38;10500054;28;20223;-68
2022/01/21 16:38:35;;;;;;;4.43;1.20;;;;;;;0.84;71.58;100311.03;10501447;28;20203;-66
2022/01/21 16:43:40;;;;;;;5.47;1.67;;;;;;;0.98;71.93;100310.56;10490024;28;20220;-68
2022/01/21 16:48:44;;;;;;;8.73;1.73;;;;;;;0.92;71.89;100300.19;10518707;28;20211;-64
2022/01/21 16:53:48;;;;;;;26.00;10.77;;;;;;;1.01;71.41;100300.44;10543336;28;20196;-67
2022/01/21 16:58:56;;;;;;;47.57;21.63;;;;;;;1.18;71.17;100299.19;10510943;28;20287;-67
2022/01/21 17:03:59;;;;;;;5.53;1.63;;;;;;;1.11;71.30;100316.88;10477831;28;20212;-66
2022/01/21 17:09:04;;;;;;;8.53;1.70;;;;;;;1.09;70.61;100304.06;10490642;28;20233;-67
2022/01/21 17:14:09;;;;;;;6.57;2.43;;;;;;;1.01;71.07;100307.25;10458335;28;20193;-66
2022/01/21 17:19:13;;;;;;;6.07;1.30;;;;;;;1.04;70.68;100312.44;10458550;28;20789;-65
2022/01/21 17:24:17;;;;;;;6.80;1.73;;;;;;;1.11;70.21;100310.09;10458922;28;20231;-68
2022/01/21 17:29:22;;;;;;;6.90;1.87;;;;;;;1.00;69.68;100308.91;10458323;28;20221;-64
2022/01/21 17:34:25;;;;;;;3.90;1.60;;;;;;;0.99;69.64;100311.44;10458130;28;20916;-64
2022/01/21 17:39:28;;;;;;;57.57;27.27;;;;;;;0.80;71.55;100307.53;10458236;28;20227;-71
2022/01/21 17:44:38;;;;;;;4.03;1.03;;;;;;;1.03;70.27;100295.38;10457632;28;20317;-65
2022/01/21 17:49:42;;;;;;;6.03;1.87;;;;;;;0.91;68.74;100300.16;10507953;28;20259;-65
2022/01/21 17:54:46;;;;;;;8.07;1.63;;;;;;;0.87;68.16;100299.22;10541009;28;20288;-69
2022/01/21 17:59:50;;;;;;;4.27;1.50;;;;;;;1.01;68.33;100300.44;10540518;28;20217;-66
2022/01/21 18:04:54;;;;;;;7.53;1.53;;;;;;;1.10;67.45;100287.06;10540238;28;20614;-67
2022/01/21 18:10:04;;;;;;;5.17;1.23;;;;;;;0.98;66.86;100300.34;10540223;28;20211;-67
2022/01/21 18:15:09;;;;;;;8.23;1.40;;;;;;;1.07;67.35;100310.81;10538953;28;20241;-67
2022/01/21 18:20:12;;;;;;;8.90;1.23;;;;;;;1.02;67.36;100308.97;10539570;28;20525;-64
2022/01/21 18:25:16;;;;;;;6.23;1.37;;;;;;;0.98;67.15;100312.28;10539680;28;20660;-66
2022/01/21 18:30:22;;;;;;;4.33;1.30;;;;;;;0.90;68.18;100316.28;10539281;28;20348;-65
2022/01/21 18:35:41;;;;;;;4.97;1.60;;;;;;;0.95;67.06;100309.63;10539249;28;20652;-66
2022/01/21 18:40:45;;;;;;;5.80;1.70;;;;;;;0.97;67.31;100303.72;10539584;28;20311;-65
2022/01/21 18:45:52;;;;;;;4.10;0.93;;;;;;;0.74;67.44;100312.44;10539101;28;20624;-65
2022/01/21 18:50:57;;;;;;;5.20;1.10;;;;;;;0.52;67.34;100310.09;10503260;28;20240;-66
2022/01/21 18:56:01;;;;;;;5.87;1.50;;;;;;;0.59;67.25;100309.47;10498278;28;20223;-66
2022/01/21 19:01:07;;;;;;;7.87;1.57;;;;;;;0.49;67.10;100320.25;10497488;28;20227;-66
2022/01/21 19:06:10;;;;;;;6.20;1.77;;;;;;;0.47;67.23;100326.97;10496795;28;20232;-66
2022/01/21 19:11:14;;;;;;;6.93;1.90;;;;;;;0.26;67.99;100328.06;10496933;28;20242;-67
2022/01/21 19:16:19;;;;;;;8.90;1.80;;;;;;;0.36;67.65;100327.50;10496790;28;20228;-64
2022/01/21 19:21:28;;;;;;;21.00;9.10;;;;;;;0.37;68.22;100341.97;10496591;28;20653;-63
2022/01/21 19:26:47;;;;;;;5.83;1.50;;;;;;;0.39;67.83;100338.66;10500521;28;20271;-62
2022/01/21 19:31:52;;;;;;;6.13;1.40;;;;;;;0.31;67.99;100337.56;10504631;28;20216;-66
2022/01/21 19:36:55;;;;;;;8.47;1.87;;;;;;;0.31;67.87;100341.81;10504263;28;20220;-62
2022/01/21 19:41:59;;;;;;;10.70;1.83;;;;;;;0.40;68.02;100348.03;10472174;28;20371;-65
2022/01/21 19:47:07;;;;;;;8.03;1.80;;;;;;;0.48;67.98;100349.16;10468783;28;20215;-66
2022/01/21 19:52:11;;;;;;;8.03;2.30;;;;;;;0.35;68.48;100358.94;10545757;28;20766;-67
2022/01/21 19:57:23;;;;;;;8.57;1.93;;;;;;;0.28;68.55;100350.22;10545766;28;20226;-67
2022/01/21 20:02:41;;;;;;;7.67;1.70;;;;;;;0.16;69.64;100348.97;10545208;28;20230;-68
2022/01/21 20:13:05;;;;;;;5.57;2.20;;;;;;;0.12;70.59;100360.81;10536361;28;20559;-69
2022/01/21 20:18:16;;;;;;;5.17;1.50;;;;;;;0.12;70.33;100340.38;10536799;28;20238;-66
2022/01/21 20:23:19;;;;;;;7.10;1.73;;;;;;;-0.12;71.80;100344.69;10500521;28;20224;-66
2022/01/21 20:28:23;;;;;;;11.27;2.20;;;;;;;0.03;70.99;100348.59;10489493;28;20569;-68
2022/01/21 20:33:30;;;;;;;5.77;1.73;;;;;;;-0.15;71.95;100360.78;10485429;28;20230;-66
2022/01/21 20:38:37;;;;;;;3.67;1.20;;;;;;;-0.03;72.09;100358.63;10500111;28;20226;-67
2022/01/21 20:43:41;;;;;;;7.33;1.70;;;;;;;-0.10;72.17;100364.34;10501595;28;20235;-68
2022/01/21 20:48:45;;;;;;;5.40;1.80;;;;;;;-0.39;74.36;100367.63;10518613;28;20254;-68
2022/01/21 20:53:49;;;;;;;6.47;2.57;;;;;;;-0.09;72.92;100381.38;10543467;28;20226;-65
2022/01/21 20:58:56;;;;;;;6.27;1.67;;;;;;;-0.23;73.15;100384.28;10543025;28;20248;-66
2022/01/21 21:04:01;;;;;;;13.43;2.23;;;;;;;-0.17;73.36;100382.81;10542898;28;20224;-66
2022/01/21 21:09:09;;;;;;;6.17;1.90;;;;;;;-0.08;72.70;100369.50;10500021;28;20248;-67
2022/01/21 21:14:14;;;;;;;7.00;1.67;;;;;;;-0.02;72.35;100360.34;10498215;28;20223;-67
2022/01/21 21:24:39;;;;;;;4.80;1.43;;;;;;;-0.02;72.42;100357.78;10498763;28;20556;-68
2022/01/21 21:29:53;;;;;;;5.83;2.00;;;;;;;-0.08;72.66;100380.56;10499742;28;20905;-68
2022/01/21 23:01:05;;;;;;;8.60;2.50;;;;;;;-0.15;74.69;100383.72;10500848;28;20649;-68
2022/01/21 23:06:11;;;;;;;7.30;2.40;;;;;;;-0.11;74.43;100375.38;10505644;28;20223;-66
2022/01/21 23:11:17;;;;;;;6.37;1.47;;;;;;;-0.19;75.08;100369.13;10505634;28;20533;-69
2022/01/21 23:16:20;;;;;;;8.33;2.37;;;;;;;-0.19;75.06;100368.28;10505439;28;20317;-68
2022/01/21 23:21:24;;;;;;;6.53;2.00;;;;;;;-0.20;76.27;100367.41;10505103;28;20227;-65
2022/01/21 23:26:33;;;;;;;7.90;2.10;;;;;;;-0.37;76.85;100345.59;10504916;28;20223;-65
2022/01/21 23:31:37;;;;;;;13.30;2.40;;;;;;;-0.51;77.93;100351.94;10504642;28;20216;-67
2022/01/21 23:36:44;;;;;;;11.40;2.80;;;;;;;-0.41;78.35;100343.75;10504606;28;20560;-66
2022/01/21 23:41:56;;;;;;;11.47;2.40;;;;;;;-0.59;79.56;100334.66;10505182;28;20212;-66
2022/01/21 23:47:02;;;;;;;8.37;1.50;;;;;;;-0.51;79.27;100349.38;10507672;28;20301;-69
2022/01/21 23:52:06;;;;;;;5.90;2.00;;;;;;;-0.71;80.20;100345.31;10507252;28;20230;-65
2022/01/21 23:57:11;;;;;;;5.63;1.97;;;;;;;-0.72;80.36;100345.22;10507352;28;20212;-66
